createdAt,value
2023-02-24T00:01:28.819Z,6.61
2023-02-24T00:04:02.744Z,6.78
2023-02-24T00:06:37.040Z,6.98
2023-02-24T00:09:11.909Z,5.44
2023-02-24T00:11:45.281Z,6.05
2023-02-24T00:14:19.953Z,5.94
2023-02-24T00:16:51.817Z,6.83
2023-02-24T00:19:25.200Z,6.86
2023-02-24T00:21:57.340Z,6.02
2023-02-24T00:24:30.805Z,6.22
2023-02-24T00:27:08.125Z,6.93
2023-02-24T00:29:41.161Z,6.01
2023-02-24T00:32:13.641Z,7.01
2023-02-24T00:34:44.352Z,7.02
2023-02-24T00:37:17.227Z,7.04
2023-02-24T00:39:50.893Z,6.37
2023-02-24T00:42:23.042Z,6.93
2023-02-24T00:44:54.293Z,6.03
2023-02-24T00:47:26.789Z,6.02
2023-02-24T00:50:03.140Z,6.07
2023-02-24T00:52:38.507Z,6.96
2023-02-24T00:55:15.320Z,5.62
2023-02-24T00:57:45.621Z,6.91
2023-02-24T01:00:20.328Z,6.54
2023-02-24T01:02:53.018Z,5.94
2023-02-24T01:05:23.366Z,5.02
2023-02-24T01:07:53.988Z,5.91
2023-02-24T01:10:28.549Z,5.94
2023-02-24T01:12:55.946Z,5.86
2023-02-24T01:15:26.537Z,6.53
2023-02-24T01:17:59.553Z,6.70
2023-02-24T01:20:33.308Z,5.68
2023-02-24T01:23:03.656Z,5.90
2023-02-24T01:25:40.510Z,5.23
2023-02-24T01:28:14.351Z,6.44
2023-02-24T01:30:45.926Z,5.77
2023-02-24T01:33:18.748Z,6.65
2023-02-24T01:35:51.616Z,5.43
2023-02-24T01:38:28.072Z,6.48
2023-02-24T01:41:23.774Z,4.84
2023-02-24T01:44:09.778Z,6.06
2023-02-24T01:46:58.508Z,6.14
2023-02-24T01:49:44.567Z,6.75
2023-02-24T01:52:24.654Z,6.74
2023-02-24T01:55:07.609Z,6.23
2023-02-24T01:57:55.911Z,6.45
2023-02-24T02:00:51.606Z,4.92
2023-02-24T02:03:40.485Z,5.60
2023-02-24T02:06:26.742Z,6.13
2023-02-24T02:09:02.799Z,6.50
2023-02-24T02:11:40.787Z,6.46
2023-02-24T02:14:18.622Z,6.50
2023-02-24T02:17:05.966Z,4.76
2023-02-24T02:20:18.329Z,5.49
2023-02-24T02:23:26.546Z,6.17
2023-02-24T02:26:25.875Z,5.43
2023-02-24T02:29:36.526Z,5.41
2023-02-24T02:32:32.064Z,4.78
2023-02-24T02:35:13.705Z,5.30
2023-02-24T02:37:55.630Z,5.30
2023-02-24T02:40:37.459Z,5.35
2023-02-24T02:43:17.495Z,5.59
2023-02-24T02:45:55.766Z,6.28
2023-02-24T02:48:34.307Z,5.58
2023-02-24T02:51:11.834Z,5.28
2023-02-24T02:53:53.331Z,5.27
2023-02-24T02:56:30.780Z,6.01
2023-02-24T02:59:13.550Z,5.87
2023-02-24T03:01:54.416Z,5.33
2023-02-24T03:04:28.152Z,4.59
2023-02-24T03:07:10.732Z,5.87
2023-02-24T03:09:52.273Z,5.27
2023-02-24T03:12:48.639Z,5.38
2023-02-24T03:15:24.361Z,6.21
2023-02-24T03:18:04.521Z,4.87
2023-02-24T03:20:44.552Z,6.13
2023-02-24T03:23:26.072Z,5.05
2023-02-24T03:26:10.773Z,4.34
2023-02-24T03:29:00.396Z,5.31
2023-02-24T03:31:44.136Z,4.23
2023-02-24T03:34:23.462Z,5.78
2023-02-24T03:37:02.289Z,4.88
2023-02-24T03:39:47.316Z,4.75
2023-02-24T03:42:28.308Z,5.36
2023-02-24T03:45:01.449Z,5.81
2023-02-24T03:47:36.032Z,5.74
2023-02-24T03:50:14.648Z,5.73
2023-02-24T03:53:03.135Z,4.69
2023-02-24T03:55:46.115Z,4.56
2023-02-24T03:58:26.089Z,4.58
2023-02-24T04:01:10.853Z,4.53
2023-02-24T04:03:51.312Z,5.51
2023-02-24T04:06:44.177Z,3.82
2023-02-24T04:09:20.448Z,5.46
2023-02-24T04:12:14.363Z,5.47
2023-02-24T04:14:53.843Z,4.52
2023-02-24T04:17:30.400Z,5.44
2023-02-24T04:20:10.667Z,4.39
2023-02-24T04:22:49.304Z,4.44
2023-02-24T04:25:24.925Z,4.33
2023-02-24T04:28:03.496Z,4.22
2023-02-24T04:30:40.166Z,4.47
2023-02-24T04:33:11.393Z,4.04
2023-02-24T04:35:45.541Z,4.57
2023-02-24T04:38:16.078Z,4.10
2023-02-24T04:40:46.335Z,4.09
2023-02-24T04:43:19.502Z,5.07
2023-02-24T04:45:51.768Z,3.23
2023-02-24T04:48:22.091Z,4.91
2023-02-24T04:50:55.458Z,3.63
2023-02-24T04:53:28.296Z,4.69
2023-02-24T04:55:59.140Z,4.52
2023-02-24T04:58:32.491Z,3.63
2023-02-24T05:01:08.568Z,3.36
2023-02-24T05:03:42.581Z,4.24
2023-02-24T05:06:17.518Z,4.14
2023-02-24T05:08:48.158Z,3.67
2023-02-24T05:11:22.248Z,4.80
2023-02-24T05:13:58.517Z,4.76
2023-02-24T05:16:29.127Z,2.79
2023-02-24T05:19:11.368Z,4.48
2023-02-24T05:21:42.084Z,3.74
2023-02-24T05:24:17.466Z,4.07
2023-02-24T05:26:47.747Z,3.63
2023-02-24T05:29:20.454Z,4.00
2023-02-24T05:31:50.866Z,3.43
2023-02-24T05:34:20.797Z,4.21
2023-02-24T05:36:50.835Z,4.75
2023-02-24T05:39:22.093Z,4.23
2023-02-24T05:41:54.861Z,4.73
2023-02-24T05:44:31.933Z,4.03
2023-02-24T05:47:02.275Z,4.52
2023-02-24T05:49:34.503Z,4.74
2023-02-24T05:52:08.141Z,3.87
2023-02-24T05:54:41.625Z,4.85
2023-02-24T05:57:13.258Z,4.80
2023-02-24T05:59:46.692Z,3.38
2023-02-24T06:02:31.652Z,3.30
2023-02-24T06:14:18.022Z,3.00
2023-02-24T06:17:19.831Z,4.19
2023-02-24T06:30:29.209Z,3.94
2023-02-24T08:09:36.042Z,3.59
2023-02-24T08:27:06.728Z,3.55
2023-02-24T08:40:26.619Z,4.66
2023-02-24T09:03:46.622Z,4.68
2023-02-24T09:06:25.465Z,4.75
2023-02-24T09:09:17.694Z,4.80
2023-02-24T09:11:48.249Z,4.52
2023-02-24T09:14:28.936Z,4.52
2023-02-24T09:17:11.707Z,4.66
2023-02-24T09:19:58.901Z,4.51
2023-02-24T09:22:57.419Z,4.64
2023-02-24T09:25:40.865Z,4.47
2023-02-24T09:28:17.390Z,4.55
2023-02-24T09:30:53.888Z,4.58
2023-02-24T09:33:29.959Z,4.33
2023-02-24T09:36:13.281Z,4.49
2023-02-24T09:38:57.855Z,4.36
2023-02-24T09:41:45.364Z,4.14
2023-02-24T09:44:19.800Z,4.30
2023-02-24T09:46:56.609Z,4.40
2023-02-24T09:49:40.051Z,4.30
2023-02-24T09:52:19.596Z,4.51
2023-02-24T09:55:20.571Z,4.44
2023-02-24T09:58:26.992Z,4.44
2023-02-24T10:01:21.451Z,4.32
2023-02-24T10:04:14.859Z,4.68
2023-02-24T10:06:52.054Z,4.36
2023-02-24T10:09:34.570Z,4.59
2023-02-24T10:12:11.787Z,4.37
2023-02-24T10:14:51.532Z,4.36
2023-02-24T10:17:30.788Z,4.28
2023-02-24T10:20:14.149Z,3.94
2023-02-24T10:22:54.448Z,3.79
2023-02-24T10:25:36.589Z,4.02
2023-02-24T10:28:17.896Z,4.21
2023-02-24T10:31:01.875Z,4.31
2023-02-24T10:33:39.067Z,4.42
2023-02-24T10:36:12.543Z,4.14
2023-02-24T10:38:45.785Z,4.51
2023-02-24T10:41:21.013Z,4.49
2023-02-24T10:44:05.132Z,4.46
2023-02-24T10:46:42.117Z,4.32
2023-02-24T10:49:16.790Z,4.68
2023-02-24T10:51:53.999Z,4.95
2023-02-24T10:54:53.098Z,4.70
2023-02-24T10:57:42.475Z,4.62
2023-02-24T11:00:32.701Z,4.51
2023-02-24T11:03:10.670Z,4.24
2023-02-24T11:06:06.747Z,4.42
2023-02-24T11:08:44.173Z,4.36
2023-02-24T11:11:25.989Z,4.45
2023-02-24T11:14:15.058Z,4.34
2023-02-24T11:17:05.438Z,4.38
2023-02-24T11:19:40.716Z,4.30
2023-02-24T11:22:16.370Z,4.32
2023-02-24T11:24:47.875Z,4.11
2023-02-24T11:27:19.520Z,4.17
2023-02-24T11:30:10.230Z,3.99
2023-02-24T11:32:56.839Z,4.06
2023-02-24T11:35:32.723Z,4.05
2023-02-24T11:38:12.292Z,3.93
2023-02-24T11:40:48.387Z,4.11
2023-02-24T11:43:22.599Z,4.07
2023-02-24T11:46:00.973Z,4.19
2023-02-24T11:48:34.516Z,4.35
2023-02-24T11:51:07.781Z,4.10
2023-02-24T11:53:41.253Z,4.23
2023-02-24T11:56:16.969Z,4.03
2023-02-24T11:58:51.106Z,4.01
2023-02-24T12:01:30.905Z,4.20
2023-02-24T12:04:12.648Z,4.01
2023-02-24T12:06:51.123Z,4.29
2023-02-24T12:09:24.274Z,4.24
2023-02-24T12:11:59.763Z,4.05
2023-02-24T12:14:35.812Z,4.12
2023-02-24T12:17:18.657Z,4.02
2023-02-24T12:19:58.378Z,3.96
2023-02-24T12:22:35.567Z,4.04
2023-02-24T12:25:07.017Z,4.20
2023-02-24T12:27:49.548Z,4.02
2023-02-24T12:30:48.988Z,3.91
2023-02-24T12:33:31.821Z,3.86
2023-02-24T12:36:08.034Z,3.79
2023-02-24T12:38:50.825Z,3.81
2023-02-24T12:41:40.982Z,4.08
2023-02-24T12:44:24.557Z,3.92
2023-02-24T12:47:04.035Z,3.95
2023-02-24T12:49:58.986Z,4.11
2023-02-24T12:52:38.587Z,4.12
2023-02-24T12:55:17.751Z,4.21
2023-02-24T12:57:56.964Z,4.28
2023-02-24T13:00:34.548Z,4.15
2023-02-24T13:03:17.260Z,4.12
2023-02-24T13:05:56.824Z,4.13
2023-02-24T13:08:36.103Z,4.19
2023-02-24T13:11:14.363Z,4.14
2023-02-24T13:13:52.601Z,4.24
2023-02-24T13:16:32.563Z,4.33
2023-02-24T13:19:10.718Z,4.07
2023-02-24T13:21:43.735Z,4.12
2023-02-24T13:24:24.647Z,4.19
2023-02-24T13:26:54.782Z,4.17
2023-02-24T13:29:25.581Z,4.29
2023-02-24T13:31:56.678Z,4.41
2023-02-24T13:34:36.075Z,4.33
2023-02-24T13:37:08.979Z,4.40
2023-02-24T13:39:48.932Z,4.48
2023-02-24T13:42:25.673Z,4.43
2023-02-24T13:44:57.667Z,4.34
2023-02-24T13:48:02.951Z,4.57
2023-02-24T13:50:40.721Z,4.32
2023-02-24T13:53:36.261Z,4.31
2023-02-24T13:56:24.531Z,4.45
2023-02-24T13:59:25.314Z,4.40
2023-02-24T14:02:05.057Z,4.76
2023-02-24T14:04:40.297Z,4.67
2023-02-24T14:21:30.336Z,3.56
2023-02-24T14:24:05.336Z,3.37
2023-02-24T14:26:49.293Z,5.09
2023-02-24T14:29:25.701Z,5.17
2023-02-24T14:31:57.464Z,5.07
2023-02-24T14:34:29.388Z,5.03
2023-02-24T14:37:01.863Z,5.17
2023-02-24T14:39:35.218Z,5.24
2023-02-24T14:42:15.034Z,4.85
2023-02-24T14:44:49.472Z,5.20
2023-02-24T14:47:21.337Z,5.14
2023-02-24T14:49:59.828Z,5.25
2023-02-24T14:52:38.320Z,5.21
2023-02-24T14:55:11.216Z,5.05
2023-02-24T14:57:45.176Z,5.08
2023-02-24T15:00:24.699Z,5.10
2023-02-24T15:03:05.406Z,4.82
2023-02-24T15:05:35.388Z,5.06
2023-02-24T15:08:05.776Z,5.12
2023-02-24T15:10:35.634Z,5.17
2023-02-24T15:13:13.864Z,4.60
2023-02-24T15:15:46.895Z,4.95
2023-02-24T15:18:25.721Z,4.92
2023-02-24T15:21:04.139Z,4.99
2023-02-24T15:23:35.908Z,4.56
2023-02-24T15:26:06.149Z,4.58
2023-02-24T15:28:37.875Z,5.07
2023-02-24T15:31:18.612Z,4.95
2023-02-24T15:33:58.022Z,5.13
2023-02-24T15:36:30.155Z,5.15
2023-02-24T15:39:04.028Z,5.02
2023-02-24T15:41:44.905Z,4.91
2023-02-24T15:44:28.468Z,5.13
2023-02-24T15:47:03.023Z,5.15
2023-02-24T15:49:33.002Z,5.13
2023-02-24T15:52:55.311Z,3.52
2023-02-24T15:55:25.657Z,4.83
2023-02-24T15:58:01.838Z,5.11
2023-02-24T16:00:32.368Z,5.16
2023-02-24T16:03:04.668Z,5.24
2023-02-24T16:05:34.884Z,5.26
2023-02-24T19:00:45.708Z,5.82
2023-02-24T19:03:56.140Z,5.99
2023-02-24T19:07:36.387Z,5.81
2023-02-24T19:10:59.119Z,5.15
2023-02-24T19:14:00.676Z,5.31
2023-02-24T19:58:56.093Z,5.61
2023-02-24T20:02:01.041Z,4.87
2023-02-24T20:04:33.766Z,5.56
2023-02-24T20:07:04.005Z,4.57
2023-02-24T20:09:33.894Z,5.21
2023-02-24T20:12:03.840Z,5.55
2023-02-24T20:14:36.287Z,5.81
2023-02-24T20:17:06.227Z,5.76
2023-02-24T20:19:37.216Z,5.79
2023-02-24T20:22:07.219Z,5.74
2023-02-24T20:24:37.747Z,5.88
2023-02-24T20:27:08.001Z,5.85
2023-02-24T20:29:41.265Z,5.40
2023-02-24T20:32:10.985Z,5.73
2023-02-24T20:34:41.319Z,5.79
2023-02-24T20:37:10.990Z,5.68
2023-02-24T20:39:40.901Z,5.30
2023-02-24T20:42:12.232Z,5.68
2023-02-24T20:44:44.448Z,5.67
2023-02-24T20:47:14.096Z,5.56
2023-02-24T20:49:43.819Z,5.60
2023-02-24T20:52:13.495Z,5.49
2023-02-24T20:54:44.241Z,5.66
2023-02-24T20:57:13.915Z,5.66
2023-02-24T21:00:01.478Z,5.43
2023-02-24T21:02:33.091Z,5.59
2023-02-24T21:05:03.059Z,5.64
2023-02-24T21:07:36.972Z,5.61
2023-02-24T21:10:07.924Z,5.47
2023-02-24T21:12:37.558Z,5.25
2023-02-24T21:15:12.343Z,5.66
2023-02-24T21:17:42.309Z,5.47
2023-02-24T21:20:14.461Z,5.63
2023-02-24T21:22:44.812Z,5.67
2023-02-24T21:25:14.814Z,5.75
2023-02-24T21:27:44.591Z,5.63
2023-02-24T21:30:17.377Z,5.69
2023-02-24T21:32:47.082Z,5.66
2023-02-24T21:35:16.748Z,5.59
2023-02-24T21:37:46.366Z,5.47
2023-02-24T21:40:17.686Z,5.76
2023-02-24T21:42:47.742Z,5.80
2023-02-24T21:45:20.109Z,5.80
2023-02-24T21:47:49.942Z,5.70
2023-02-24T21:50:21.785Z,5.72
2023-02-24T21:52:52.562Z,5.26
2023-02-24T21:55:23.438Z,5.09
2023-02-24T21:57:53.200Z,5.32
2023-02-24T22:00:25.839Z,5.51
2023-02-24T22:02:57.609Z,5.63
2023-02-24T22:05:29.474Z,5.25
2023-02-24T22:07:59.635Z,5.23
2023-02-24T22:10:29.764Z,5.03
2023-02-24T22:13:01.688Z,4.74
2023-02-24T22:15:34.245Z,5.15
2023-02-24T22:18:03.940Z,5.20
2023-02-24T22:20:33.819Z,5.50
2023-02-24T22:23:03.872Z,5.01
2023-02-24T22:25:33.610Z,5.06
2023-02-24T22:28:03.233Z,5.40
2023-02-24T22:30:35.460Z,5.27
2023-02-24T22:33:05.302Z,4.97
2023-02-24T22:35:36.586Z,5.49
2023-02-24T22:38:06.471Z,5.49
2023-02-24T22:40:36.423Z,4.93
2023-02-24T22:43:06.354Z,5.48
2023-02-24T22:45:39.429Z,5.68
2023-02-24T22:48:09.082Z,5.50
2023-02-24T22:50:38.906Z,5.49
2023-02-24T22:53:08.684Z,5.55
2023-02-24T22:55:38.441Z,5.37
2023-02-24T22:58:08.082Z,5.66
2023-02-24T23:00:42.968Z,5.43
2023-02-24T23:03:12.653Z,5.29
2023-02-24T23:05:42.544Z,5.61
2023-02-24T23:08:12.529Z,5.29
2023-02-24T23:10:42.326Z,5.65
2023-02-24T23:13:12.068Z,5.61
2023-02-24T23:15:44.375Z,5.21
2023-02-24T23:18:14.068Z,5.40
2023-02-24T23:20:44.893Z,5.32
2023-02-24T23:23:16.070Z,5.52
2023-02-24T23:25:53.986Z,5.33
2023-02-24T23:28:23.873Z,5.57
2023-02-24T23:30:57.800Z,5.51
2023-02-24T23:33:28.322Z,5.42
2023-02-24T23:35:58.051Z,5.27
2023-02-24T23:38:27.861Z,5.26
2023-02-24T23:40:57.552Z,5.44
2023-02-24T23:43:27.206Z,5.15
2023-02-24T23:45:59.523Z,5.48
2023-02-24T23:48:29.385Z,5.42
2023-02-24T23:50:59.354Z,5.40
2023-02-24T23:53:29.174Z,5.27
2023-02-24T23:55:58.880Z,5.36
2023-02-24T23:58:28.624Z,5.43
